createdAt,value
2018-12-09T00:05:25.680Z,12.80
2018-12-09T00:11:31.307Z,12.80
2018-12-09T00:17:36.088Z,13.80
2018-12-09T00:23:40.349Z,14.40
2018-12-09T00:29:43.854Z,14.40
2018-12-09T00:35:48.481Z,14.10
2018-12-09T00:41:52.201Z,14.20
2018-12-09T00:47:55.690Z,15.00
2018-12-09T00:54:00.425Z,15.00
2018-12-09T01:00:05.391Z,14.80
2018-12-09T01:06:09.192Z,15.20
2018-12-09T01:12:14.584Z,15.80
2018-12-09T01:18:19.841Z,15.90
2018-12-09T01:24:24.127Z,16.20
2018-12-09T01:30:29.561Z,16.00
2018-12-09T01:36:34.823Z,15.70
2018-12-09T01:42:41.853Z,16.10
2018-12-09T01:48:45.978Z,16.50
2018-12-09T01:54:50.050Z,16.50
2018-12-09T02:00:57.284Z,16.40
2018-12-09T02:07:00.985Z,16.70
2018-12-09T02:13:05.608Z,16.20
2018-12-09T02:19:19.477Z,16.40
2018-12-09T02:25:25.801Z,16.20
2018-12-09T02:31:30.915Z,15.90
2018-12-09T02:37:37.576Z,16.20
2018-12-09T02:43:42.731Z,16.60
2018-12-09T02:49:46.982Z,16.00
2018-12-09T02:55:52.688Z,16.40
2018-12-09T03:01:57.315Z,16.10
2018-12-09T03:08:00.977Z,16.60
2018-12-09T03:14:05.507Z,16.30
2018-12-09T03:20:10.222Z,16.40
2018-12-09T03:26:13.746Z,16.40
2018-12-09T03:32:18.430Z,16.40
2018-12-09T03:38:24.887Z,16.00
2018-12-09T03:44:31.293Z,16.40
2018-12-09T03:50:35.612Z,16.30
2018-12-09T03:56:39.747Z,16.00
2018-12-09T04:02:46.701Z,16.50
2018-12-09T04:08:52.185Z,15.40
2018-12-09T04:14:56.239Z,15.80
2018-12-09T04:21:01.066Z,15.90
2018-12-09T04:27:05.347Z,15.80
2018-12-09T04:33:08.992Z,15.30
2018-12-09T04:39:14.292Z,15.00
2018-12-09T04:55:50.952Z,15.50
2018-12-09T05:01:55.131Z,16.00
2018-12-09T05:07:59.632Z,15.70
2018-12-09T05:14:03.217Z,16.00
2018-12-09T05:20:08.628Z,16.00
2018-12-09T05:26:12.088Z,16.10
2018-12-09T05:32:16.556Z,16.00
2018-12-09T05:38:20.940Z,16.10
2018-12-09T05:44:25.420Z,16.20
2018-12-09T05:50:29.002Z,16.30
2018-12-09T05:56:33.676Z,15.60
2018-12-09T06:02:51.833Z,15.70
2018-12-09T06:08:58.029Z,15.90
2018-12-09T06:15:04.752Z,16.30
2018-12-09T06:21:08.525Z,16.70
2018-12-09T06:27:14.110Z,16.40
2018-12-09T06:33:17.661Z,16.60
2018-12-09T06:39:22.323Z,16.10
2018-12-09T06:45:25.836Z,16.30
2018-12-09T06:51:29.611Z,16.10
2018-12-09T06:57:33.061Z,15.80
2018-12-09T07:03:36.696Z,16.00
2018-12-09T07:09:40.145Z,16.30
2018-12-09T07:15:43.613Z,15.60
2018-12-09T07:21:47.938Z,16.30
2018-12-09T07:27:52.621Z,15.60
2018-12-09T07:33:58.656Z,16.40
2018-12-09T07:40:03.322Z,16.40
2018-12-09T07:46:07.794Z,15.80
2018-12-09T07:52:12.133Z,16.40
2018-12-09T07:58:16.764Z,16.80
2018-12-09T08:04:20.607Z,15.90
2018-12-09T08:10:24.053Z,16.50
2018-12-09T08:16:27.517Z,16.40
2018-12-09T08:22:31.854Z,16.00
2018-12-09T08:28:35.563Z,16.00
2018-12-09T08:34:39.914Z,16.60
2018-12-09T08:40:43.450Z,15.70
2018-12-09T08:46:48.200Z,16.70
2018-12-09T08:52:51.674Z,16.50
2018-12-09T08:58:56.466Z,16.60
2018-12-09T09:04:59.914Z,15.90
2018-12-09T09:11:03.370Z,15.60
2018-12-09T09:17:07.281Z,16.20
2018-12-09T09:23:10.764Z,15.30
2018-12-09T09:29:15.353Z,15.40
2018-12-09T09:35:18.928Z,16.00
2018-12-09T09:41:23.572Z,15.00
2018-12-09T09:47:27.026Z,15.70
2018-12-09T09:53:32.097Z,15.10
2018-12-09T09:59:37.701Z,14.50
2018-12-09T10:05:41.217Z,12.30
2018-12-09T10:11:45.406Z,12.10
2018-12-09T10:17:48.861Z,12.40
2018-12-09T10:23:52.506Z,11.80
2018-12-09T10:29:56.012Z,11.90
2018-12-09T10:36:00.063Z,11.40
2018-12-09T10:42:04.258Z,11.80
2018-12-09T10:48:09.266Z,11.50
2018-12-09T10:54:13.779Z,11.50
2018-12-09T11:00:19.697Z,11.30
2018-12-09T11:06:24.935Z,11.90
2018-12-09T11:12:32.323Z,11.60
2018-12-09T11:18:36.138Z,12.20
2018-12-09T11:24:40.282Z,13.30
2018-12-09T11:30:43.748Z,13.00
2018-12-09T11:36:47.297Z,13.60
2018-12-09T11:42:51.850Z,12.60
2018-12-09T11:48:57.692Z,13.30
2018-12-09T11:55:01.208Z,13.60
2018-12-09T12:01:08.129Z,13.50
2018-12-09T12:07:12.056Z,13.20
2018-12-09T12:13:16.012Z,13.70
2018-12-09T12:19:20.225Z,12.30
2018-12-09T12:25:26.206Z,12.70
2018-12-09T12:31:29.650Z,13.10
2018-12-09T12:37:33.111Z,13.20
2018-12-09T12:43:37.541Z,12.00
2018-12-09T12:49:42.767Z,11.00
2018-12-09T12:55:46.937Z,11.20
2018-12-09T13:01:51.007Z,10.90
2018-12-09T13:07:54.637Z,11.00
2018-12-09T13:13:58.225Z,12.60
2018-12-09T13:20:01.699Z,13.00
2018-12-09T13:26:05.476Z,12.20
2018-12-09T13:32:09.700Z,13.00
2018-12-09T13:38:14.404Z,13.10
2018-12-09T13:44:18.165Z,13.50
2018-12-09T13:50:23.546Z,13.30
2018-12-09T13:56:27.301Z,13.90
2018-12-09T14:02:33.078Z,13.90
2018-12-09T14:08:37.510Z,13.70
2018-12-09T14:14:42.245Z,13.50
2018-12-09T14:20:45.950Z,13.20
2018-12-09T14:26:52.233Z,13.30
2018-12-09T14:32:57.273Z,13.40
2018-12-09T14:39:01.883Z,12.60
2018-12-09T14:45:07.253Z,13.50
2018-12-09T14:51:10.790Z,13.10
2018-12-09T14:57:14.234Z,13.20
2018-12-09T15:03:17.771Z,12.90
2018-12-09T15:09:23.404Z,13.80
2018-12-09T15:15:28.728Z,13.60
2018-12-09T15:21:32.323Z,13.00
2018-12-09T15:27:35.774Z,13.10
2018-12-09T15:33:39.874Z,12.90
2018-12-09T15:39:45.438Z,12.80
2018-12-09T15:45:48.917Z,12.60
2018-12-09T15:51:52.496Z,12.20
2018-12-09T15:57:56.179Z,11.00
2018-12-09T16:04:00.491Z,11.20
2018-12-09T16:10:04.723Z,11.30
2018-12-09T16:16:09.533Z,11.00
2018-12-09T16:22:14.848Z,10.40
2018-12-09T16:28:18.977Z,10.30
2018-12-09T16:34:23.546Z,9.90
2018-12-09T16:40:27.513Z,10.30
2018-12-09T16:46:31.828Z,10.20
2018-12-09T16:52:36.380Z,10.10
2018-12-09T16:58:40.343Z,10.10
2018-12-09T17:04:44.670Z,9.80
2018-12-09T17:10:48.398Z,9.60
2018-12-09T17:16:52.126Z,8.80
2018-12-09T17:22:55.633Z,8.40
2018-12-09T17:29:05.354Z,8.30
2018-12-09T17:35:05.404Z,8.20
2018-12-09T17:41:13.307Z,8.30
2018-12-09T17:47:16.958Z,8.20
2018-12-09T17:53:20.431Z,8.40
2018-12-09T17:59:26.972Z,8.50
2018-12-09T18:05:31.089Z,9.90
2018-12-09T18:11:34.558Z,10.60
2018-12-09T18:17:38.025Z,10.60
2018-12-09T18:23:41.562Z,10.50
2018-12-09T18:29:45.570Z,10.80
2018-12-09T18:35:51.202Z,10.90
2018-12-09T18:41:58.303Z,10.40
2018-12-09T18:48:04.642Z,8.90
2018-12-09T18:54:09.404Z,8.70
2018-12-09T19:00:13.043Z,8.50
2018-12-09T19:06:18.490Z,8.20
2018-12-09T19:12:23.255Z,8.20
2018-12-09T19:18:29.271Z,8.20
2018-12-09T19:24:34.309Z,8.30
2018-12-09T19:30:38.278Z,8.00
2018-12-09T19:36:45.509Z,8.10
2018-12-09T19:42:51.050Z,7.90
2018-12-09T19:48:54.906Z,8.00
2018-12-09T19:54:59.573Z,7.90
2018-12-09T20:01:03.908Z,7.80
2018-12-09T20:07:08.862Z,7.80
2018-12-09T20:13:12.906Z,7.90
2018-12-09T20:19:17.187Z,7.90
2018-12-09T20:25:21.645Z,7.80
2018-12-09T20:31:28.553Z,7.80
2018-12-09T20:37:32.015Z,7.90
2018-12-09T20:43:37.039Z,8.10
2018-12-09T20:49:41.133Z,8.10
2018-12-09T20:55:44.795Z,8.10
2018-12-09T21:01:49.923Z,8.00
2018-12-09T21:07:56.084Z,8.10
2018-12-09T21:14:01.202Z,7.90
2018-12-09T21:20:06.492Z,7.80
2018-12-09T21:26:10.746Z,7.70
2018-12-09T21:32:15.268Z,7.50
2018-12-09T21:38:18.952Z,7.40
2018-12-09T21:44:23.030Z,7.50
2018-12-09T21:50:26.868Z,7.40
2018-12-09T21:56:30.309Z,7.40
2018-12-09T22:02:33.735Z,7.20
2018-12-09T22:08:37.592Z,7.20
2018-12-09T22:14:42.049Z,7.30
2018-12-09T22:20:45.555Z,7.00
2018-12-09T22:26:50.222Z,7.10
2018-12-09T22:32:58.824Z,7.40
2018-12-09T22:39:02.829Z,7.30
2018-12-09T22:45:06.936Z,7.50
2018-12-09T22:51:13.562Z,7.20
2018-12-09T22:57:16.992Z,7.10
2018-12-09T23:03:24.221Z,7.40
2018-12-09T23:09:28.694Z,7.70
2018-12-09T23:15:32.984Z,7.80
2018-12-09T23:21:38.131Z,7.70
2018-12-09T23:27:42.544Z,7.80
2018-12-09T23:33:46.004Z,7.70
2018-12-09T23:39:49.668Z,7.90
2018-12-09T23:45:53.387Z,7.80
2018-12-09T23:52:00.662Z,7.50
2018-12-09T23:58:05.022Z,7.30
